Time;durP1;ratioP1;P1;durP2;ratioP2;P2;SDS_P1;SDS_P2;PMS_P1;PMS_P2;Temp;Humidity;BMP_temperature;BMP_pressure;BME280_temperature;BME280_humidity;BME280_pressure;Samples;Min_cycle;Max_cycle;Signal;HPM_P1;HPM_P2
2022/04/26 03:44:03;;;;;;;12.25;7.05;;;8.90;99.90;;;;;;20990602;28;20146;-77
2022/04/26 03:54:04;;;;;;;7.70;5.40;;;8.80;99.90;;;;;;20977829;28;20037;-76
2022/04/26 04:04:05;;;;;;;9.43;4.90;;;8.90;99.90;;;;;;21022097;28;20316;-77
2022/04/26 04:14:06;;;;;;;6.63;4.70;;;8.80;99.90;;;;;;20988007;28;20115;-77
2022/04/26 04:24:07;;;;;;;8.17;4.93;;;8.90;99.90;;;;;;20986276;28;20031;-77
2022/04/26 04:34:08;;;;;;;6.07;3.73;;;8.90;99.90;;;;;;20967965;28;20032;-77
2022/04/26 04:44:08;;;;;;;6.90;3.80;;;8.70;99.90;;;;;;20980234;28;20021;-77
2022/04/26 04:54:09;;;;;;;5.07;3.57;;;8.70;99.90;;;;;;20990953;28;20479;-77
2022/04/26 05:04:11;;;;;;;8.57;5.03;;;8.60;99.90;;;;;;20998193;28;20047;-77
2022/04/26 05:14:12;;;;;;;9.07;4.47;;;8.50;99.90;;;;;;20999337;28;20388;-77
2022/04/26 05:34:32;;;;;;;7.72;3.83;;;8.60;99.90;;;;;;20989000;28;20328;-76
2022/04/26 05:44:34;;;;;;;13.27;4.73;;;8.60;99.90;;;;;;20990294;28;20115;-77
2022/04/26 05:54:35;;;;;;;9.38;7.13;;;8.50;99.90;;;;;;20998560;28;20045;-77
2022/04/26 06:04:37;;;;;;;11.77;7.10;;;8.50;99.90;;;;;;21003212;28;20093;-77
2022/04/26 06:14:38;;;;;;;15.90;7.78;;;8.40;99.90;;;;;;20997796;28;20028;-77
2022/04/26 06:24:39;;;;;;;18.23;8.63;;;8.40;99.90;;;;;;20977428;28;20036;-77
2022/04/26 06:34:40;;;;;;;17.77;9.47;;;8.30;99.90;;;;;;20996072;28;20025;-77
2022/04/26 06:44:40;;;;;;;21.27;12.30;;;8.20;99.90;;;;;;20995040;28;20082;-77
2022/04/26 06:54:41;;;;;;;16.17;11.03;;;8.20;99.90;;;;;;20994477;28;20479;-77
2022/04/26 07:04:42;;;;;;;23.37;11.50;;;8.30;99.90;;;;;;21000159;28;20073;-77
2022/04/26 07:14:43;;;;;;;20.37;12.00;;;8.30;99.90;;;;;;20993665;28;20044;-76
2022/04/26 07:24:44;;;;;;;19.70;11.77;;;8.40;99.90;;;;;;20992792;28;20074;-77
2022/04/26 07:34:47;;;;;;;20.87;12.77;;;8.20;99.90;;;;;;20991370;28;20087;-77
2022/04/26 07:44:49;;;;;;;19.20;12.32;;;8.00;99.90;;;;;;20976939;28;20068;-77
2022/04/26 07:54:50;;;;;;;26.90;14.82;;;8.10;99.90;;;;;;20991136;28;20032;-76
2022/04/26 08:04:53;;;;;;;18.90;12.00;;;8.20;99.90;;;;;;20991244;28;20033;-77
2022/04/26 08:14:54;;;;;;;23.88;14.45;;;8.40;99.90;;;;;;20990417;28;20029;-76
2022/04/26 08:35:22;;;;;;;19.38;13.27;;;8.60;99.90;;;;;;20990569;28;20547;-77
2022/04/26 08:45:22;;;;;;;18.00;11.30;;;8.80;99.90;;;;;;21000861;28;20028;-76
2022/04/26 08:55:23;;;;;;;19.13;10.33;;;9.20;99.90;;;;;;20990262;28;20036;-75
2022/04/26 09:05:25;;;;;;;19.10;10.20;;;9.20;99.90;;;;;;21004044;28;20024;-76
2022/04/26 09:15:45;;;;;;;14.20;8.73;;;9.70;99.90;;;;;;21003174;28;20039;-76
2022/04/26 09:25:47;;;;;;;13.13;7.63;;;10.80;99.90;;;;;;21013987;28;20105;-77
2022/04/26 09:35:48;;;;;;;11.40;5.88;;;11.20;99.90;;;;;;21001583;28;20043;-76
2022/04/26 09:45:56;;;;;;;10.03;6.17;;;11.90;99.90;;;;;;21000390;28;20032;-77
2022/04/26 09:55:57;;;;;;;10.80;5.43;;;12.40;99.90;;;;;;21003978;28;20036;-77
2022/04/26 10:06:06;;;;;;;14.23;5.37;;;12.90;99.90;;;;;;21003411;28;20028;-78
2022/04/26 10:16:12;;;;;;;8.85;5.18;;;13.20;99.90;;;;;;21001310;28;20028;-77
2022/04/26 10:26:22;;;;;;;6.32;4.75;;;13.30;99.90;;;;;;20979727;28;20050;-77
2022/04/26 10:36:35;;;;;;;6.15;4.60;;;13.50;99.90;;;;;;20998079;28;20515;-77
2022/04/26 10:46:35;;;;;;;6.28;4.20;;;14.10;99.90;;;;;;20981849;28;20028;-77
2022/04/26 10:56:36;;;;;;;7.23;4.03;;;14.70;99.90;;;;;;20994507;28;20028;-77
2022/04/26 11:06:39;;;;;;;8.87;4.63;;;13.80;99.90;;;;;;21002917;28;20070;-77
2022/04/26 11:17:06;;;;;;;9.20;4.60;;;14.70;99.90;;;;;;20993305;28;20028;-77
2022/04/26 11:37:28;;;;;;;6.72;4.60;;;12.40;99.90;;;;;;20992128;28;20552;-76
2022/04/26 11:47:49;;;;;;;6.80;4.33;;;12.70;99.90;;;;;;20991071;28;20052;-76
2022/04/26 11:57:51;;;;;;;6.63;3.70;;;12.50;99.90;;;;;;20993936;28;20064;-77
2022/04/26 12:07:52;;;;;;;4.53;4.05;;;12.50;99.90;;;;;;20989938;28;20040;-77
2022/04/26 12:18:13;;;;;;;5.20;3.70;;;12.30;99.90;;;;;;20998092;28;20032;-78
2022/04/26 12:28:13;;;;;;;5.65;3.13;;;13.00;99.90;;;;;;20993166;28;20039;-77
2022/04/26 12:38:14;;;;;;;6.40;3.17;;;11.50;99.90;;;;;;20988346;28;20064;-77
2022/04/26 12:58:43;;;;;;;7.22;2.90;;;13.90;99.90;;;;;;21003802;28;20035;-77
2022/04/26 13:08:47;;;;;;;5.80;2.97;;;16.20;99.90;;;;;;21003078;28;20025;-77
2022/04/26 13:18:48;;;;;;;5.68;2.63;;;16.10;99.90;;;;;;21001815;28;20431;-77
2022/04/26 13:28:49;;;;;;;4.20;2.80;;;14.60;99.90;;;;;;20999999;28;20029;-77
2022/04/26 13:38:50;;;;;;;6.33;2.77;;;13.40;99.90;;;;;;21000630;28;20055;-77
2022/04/26 13:48:52;;;;;;;3.78;2.90;;;14.00;99.90;;;;;;20999758;28;20103;-76
2022/04/26 13:58:53;;;;;;;;;;;13.00;99.90;;;;;;21003961;28;20024;-77
2022/04/26 14:08:53;;;;;;;4.25;2.60;;;14.30;99.90;;;;;;21015857;28;19908;-77
2022/04/26 14:29:14;;;;;;;4.22;2.28;;;14.30;99.90;;;;;;21040058;28;20032;-77
2022/04/26 14:39:15;;;;;;;6.30;2.20;;;14.20;99.90;;;;;;20965884;28;20437;-78
2022/04/26 14:49:16;;;;;;;5.20;2.33;;;14.40;99.90;;;;;;21051764;28;20071;-77
2022/04/26 14:59:18;;;;;;;4.43;1.77;;;15.00;99.90;;;;;;21019377;28;20401;-77
2022/04/26 15:19:38;;;;;;;4.43;1.85;;;14.90;99.90;;;;;;20976835;28;20032;-76
2022/04/26 15:29:40;;;;;;;2.70;1.77;;;15.60;99.90;;;;;;20953061;28;20032;-78
2022/04/26 15:39:42;;;;;;;5.07;2.07;;;16.10;99.90;;;;;;20910442;28;20085;-77
2022/04/26 15:49:44;;;;;;;4.03;2.10;;;16.20;99.90;;;;;;20973573;28;20290;-77
2022/04/26 15:59:45;;;;;;;;;;;15.40;99.90;;;;;;20991984;28;20037;-77
2022/04/26 16:30:25;;;;;;;5.57;2.17;;;14.70;99.90;;;;;;20973365;28;20044;-76
2022/04/26 16:40:28;;;;;;;4.75;2.22;;;14.70;99.90;;;;;;20970972;28;20040;-77
2022/04/26 16:50:29;;;;;;;5.30;1.95;;;14.40;99.90;;;;;;20970260;28;20458;-77
2022/04/26 17:00:30;;;;;;;9.50;2.23;;;13.90;99.90;;;;;;20972568;28;20040;-77
2022/04/26 17:10:31;;;;;;;8.87;1.90;;;13.90;99.90;;;;;;20967431;28;20144;-77
2022/04/26 17:20:33;;;;;;;5.10;2.00;;;13.80;99.90;;;;;;20982878;28;20040;-77
2022/04/26 17:30:34;;;;;;;3.13;2.17;;;13.50;99.90;;;;;;20989829;28;20052;-77
2022/04/26 17:40:35;;;;;;;4.43;2.53;;;13.00;99.90;;;;;;20973501;28;20048;-77
2022/04/26 17:50:36;;;;;;;7.38;2.88;;;12.80;99.90;;;;;;21005055;22;20048;-74
2022/04/26 18:00:37;;;;;;;4.20;3.23;;;12.50;99.90;;;;;;21134982;28;20397;-74
2022/04/26 18:10:39;;;;;;;5.70;3.40;;;12.30;99.90;;;;;;21144926;28;20035;-74
2022/04/26 18:20:40;;;;;;;4.30;3.40;;;12.20;99.90;;;;;;20991975;28;20596;-73
2022/04/26 18:30:41;;;;;;;7.83;3.57;;;12.10;99.90;;;;;;21020436;28;20044;-73
2022/04/26 18:40:42;;;;;;;5.67;3.90;;;11.50;99.90;;;;;;21057576;28;20044;-73
2022/04/26 18:50:43;;;;;;;5.07;3.60;;;11.10;99.90;;;;;;21058499;28;20036;-73
2022/04/26 19:00:44;;;;;;;5.27;3.90;;;10.60;99.90;;;;;;21067295;28;20114;-73
2022/04/26 19:21:05;;;;;;;11.38;4.47;;;10.20;99.90;;;;;;21056527;28;20063;-73
2022/04/26 19:31:07;;;;;;;8.48;4.47;;;10.20;99.90;;;;;;21054588;28;20036;-73
2022/04/26 19:41:08;;;;;;;7.55;4.95;;;10.00;99.90;;;;;;21055388;28;20401;-73
2022/04/26 19:51:29;;;;;;;11.27;5.60;;;10.20;99.90;;;;;;21054195;28;20042;-72
2022/04/26 20:01:30;;;;;;;11.68;5.50;;;9.50;99.90;;;;;;21052821;28;20074;-72
2022/04/26 20:11:31;;;;;;;9.00;5.53;;;9.50;99.90;;;;;;21096620;28;20055;-72
2022/04/26 20:21:33;;;;;;;8.23;5.00;;;9.60;99.90;;;;;;21052659;28;20039;-72
2022/04/26 20:31:34;;;;;;;7.35;5.57;;;9.60;99.90;;;;;;21093762;28;20882;-73
2022/04/26 20:41:34;;;;;;;13.30;5.90;;;9.40;99.90;;;;;;21068446;28;20070;-72
2022/04/26 20:51:35;;;;;;;9.77;6.03;;;9.40;99.90;;;;;;21086533;28;20038;-72
2022/04/26 21:01:36;;;;;;;8.00;5.13;;;9.30;99.90;;;;;;21151638;28;20055;-72
2022/04/26 21:11:37;;;;;;;7.50;5.47;;;9.00;99.90;;;;;;21099821;28;20035;-73
2022/04/26 21:21:38;;;;;;;12.13;6.03;;;8.90;99.90;;;;;;21046329;28;20035;-72
2022/04/26 21:31:40;;;;;;;6.87;4.83;;;8.40;99.90;;;;;;21038470;28;20024;-73
2022/04/26 21:41:40;;;;;;;;;;;8.40;99.90;;;;;;21049300;28;20042;-73
2022/04/26 21:51:43;;;;;;;9.70;5.50;;;8.20;99.90;;;;;;21114119;28;20010;-73
2022/04/26 22:01:43;;;;;;;15.85;6.78;;;7.90;99.90;;;;;;21107512;28;20277;-72
2022/04/26 22:11:44;;;;;;;11.10;6.73;;;7.20;99.90;;;;;;21100697;28;20137;-73
2022/04/26 22:21:45;;;;;;;16.43;7.93;;;7.00;99.90;;;;;;21080627;28;20048;-73
2022/04/26 22:31:46;;;;;;;12.90;6.10;;;6.80;99.90;;;;;;21079037;28;20540;-73
2022/04/26 22:41:47;;;;;;;14.27;6.40;;;6.90;99.90;;;;;;21079336;28;20024;-72
2022/04/26 22:51:47;;;;;;;16.07;7.53;;;6.70;99.90;;;;;;21078385;28;20028;-73
2022/04/26 23:01:51;;;;;;;16.13;7.72;;;6.30;99.90;;;;;;21077653;28;20032;-73
2022/04/26 23:11:53;;;;;;;10.47;7.13;;;6.40;99.90;;;;;;21077152;28;20081;-73
2022/04/26 23:21:54;;;;;;;12.27;7.93;;;6.00;99.90;;;;;;21076987;28;20059;-73
2022/04/26 23:31:55;;;;;;;14.43;8.73;;;6.10;99.90;;;;;;21075835;28;20122;-73
2022/04/26 23:41:56;;;;;;;14.40;9.10;;;5.90;99.90;;;;;;21075164;28;20049;-73
